createdAt,value
2022-12-26T00:01:45.145Z,98480.22
2022-12-26T00:04:55.311Z,98484.34
2022-12-26T00:08:08.165Z,98484.16
2022-12-26T00:11:19.143Z,98486.91
2022-12-26T00:14:29.468Z,98475.53
2022-12-26T00:17:39.523Z,98491.13
2022-12-26T00:20:50.036Z,98488.69
2022-12-26T00:24:02.338Z,98477.53
2022-12-26T00:27:12.356Z,98470.38
2022-12-26T00:30:22.448Z,98460.31
2022-12-26T00:33:32.521Z,98450.94
2022-12-26T00:36:42.860Z,98462.44
2022-12-26T00:39:54.111Z,98477.53
2022-12-26T00:43:04.140Z,98480.66
2022-12-26T00:46:14.521Z,98489.34
2022-12-26T00:49:25.403Z,98487.78
2022-12-26T00:52:35.342Z,98470.59
2022-12-26T00:55:46.955Z,98474.94
2022-12-26T00:58:56.939Z,98465.00
2022-12-26T01:02:27.113Z,98480.50
2022-12-26T01:05:37.209Z,98473.38
2022-12-26T04:02:05.051Z,98560.63
2022-12-26T04:05:28.335Z,98548.81
2022-12-26T04:09:00.588Z,98565.53
2022-12-26T04:12:29.313Z,98571.44
2022-12-26T04:15:57.109Z,98545.44
2022-12-26T04:19:25.662Z,98553.38
2022-12-26T04:22:52.408Z,98563.97
2022-12-26T04:26:19.881Z,98560.63
2022-12-26T04:29:41.274Z,98568.00
2022-12-26T04:33:07.570Z,98553.59
2022-12-26T04:36:37.878Z,98553.00
2022-12-26T04:40:03.325Z,98551.56
2022-12-26T04:43:48.671Z,98549.88
2022-12-26T04:46:57.047Z,98549.69
2022-12-26T04:50:13.042Z,98545.31
2022-12-26T04:53:24.285Z,98552.09
2022-12-26T04:56:34.477Z,98565.06
2022-12-26T04:59:44.217Z,98557.69
2022-12-26T05:03:04.935Z,98557.00
2022-12-26T05:06:28.799Z,98553.00
2022-12-26T05:09:39.868Z,98562.31
2022-12-26T05:12:50.094Z,98545.34
2022-12-26T05:16:13.817Z,98540.53
2022-12-26T05:19:34.565Z,98558.28
2022-12-26T05:22:57.546Z,98556.69
2022-12-26T05:26:27.310Z,98539.91
2022-12-26T05:29:37.171Z,98550.19
2022-12-26T05:32:57.857Z,98541.97
2022-12-26T05:36:07.873Z,98542.22
2022-12-26T05:39:17.637Z,98547.34
2022-12-26T05:42:28.974Z,98571.16
2022-12-26T05:45:38.664Z,98576.63
2022-12-26T05:48:48.337Z,98578.81
2022-12-26T05:51:58.207Z,98567.97
2022-12-26T05:55:08.133Z,98573.25
2022-12-26T05:58:19.203Z,98567.91
2022-12-26T08:32:19.209Z,98676.91
2022-12-26T08:35:30.192Z,98658.03
2022-12-26T08:38:40.939Z,98670.53
2022-12-26T08:41:50.674Z,98679.81
2022-12-26T08:45:00.348Z,98680.94
2022-12-26T08:48:11.257Z,98694.78
2022-12-26T08:51:23.014Z,98697.91
2022-12-26T08:54:32.896Z,98700.94
2022-12-26T08:57:42.652Z,98699.47
2022-12-26T09:00:55.485Z,98710.63
2022-12-26T09:04:07.688Z,98730.41
2022-12-26T09:07:17.631Z,98739.88
2022-12-26T09:10:27.341Z,98765.56
2022-12-26T09:13:37.754Z,98735.66
2022-12-26T09:16:50.820Z,98733.09
2022-12-26T09:20:02.246Z,98737.44
2022-12-26T09:23:11.981Z,98726.03
2022-12-26T09:26:21.644Z,98734.66
2022-12-26T09:29:31.332Z,98729.94
2022-12-26T09:32:41.198Z,98738.31
2022-12-26T09:35:52.503Z,98753.19
2022-12-26T09:39:02.586Z,98770.94
2022-12-26T09:42:22.102Z,98745.94
2022-12-26T09:45:46.542Z,98762.56
2022-12-26T09:49:00.852Z,98760.31
2022-12-26T09:52:16.871Z,98744.44
2022-12-26T09:55:36.917Z,98738.19
2022-12-26T09:58:50.125Z,98754.38
2022-12-26T10:01:59.974Z,98739.41
2022-12-26T10:05:14.216Z,98711.22
2022-12-26T10:08:34.236Z,98732.34
2022-12-26T10:11:58.476Z,98760.47
2022-12-26T10:15:26.413Z,98761.03
2022-12-26T10:18:41.074Z,98755.22
2022-12-26T10:22:01.914Z,98761.59
2022-12-26T10:25:19.538Z,98758.56
2022-12-26T10:28:34.528Z,98761.88
2022-12-26T10:31:49.232Z,98776.44
2022-12-26T10:35:00.342Z,98787.19
2022-12-26T10:38:18.721Z,98787.19
2022-12-26T10:41:38.980Z,98766.81
2022-12-26T10:44:48.704Z,98761.69
2022-12-26T10:47:58.489Z,98759.22
2022-12-26T10:51:09.529Z,98759.56
2022-12-26T10:54:20.186Z,98769.28
2022-12-26T10:57:36.075Z,98772.41
2022-12-26T11:00:45.826Z,98766.97
2022-12-26T11:03:57.040Z,98763.16
2022-12-26T11:07:12.094Z,98762.94
2022-12-26T11:10:23.725Z,98760.84
2022-12-26T11:13:40.065Z,98763.63
2022-12-26T11:16:50.418Z,98761.47
2022-12-26T11:20:23.753Z,98760.50
2022-12-26T11:23:33.599Z,98763.78
2022-12-26T11:26:43.287Z,98778.97
2022-12-26T11:30:16.276Z,98772.03
2022-12-26T11:33:29.737Z,98771.69
2022-12-26T11:36:46.308Z,98769.75
2022-12-26T11:39:58.631Z,98762.25
2022-12-26T11:43:18.977Z,98767.56
2022-12-26T11:46:37.241Z,98775.13
2022-12-26T11:49:55.356Z,98774.72
2022-12-26T11:53:08.075Z,98770.63
2022-12-26T11:56:27.135Z,98758.25
2022-12-26T11:59:36.963Z,98761.50
2022-12-26T12:02:48.400Z,98758.38
2022-12-26T12:06:03.979Z,98763.47
2022-12-26T12:09:22.760Z,98761.88
2022-12-26T12:12:40.391Z,98762.03
2022-12-26T12:15:58.736Z,98747.38
2022-12-26T12:19:22.494Z,98758.72
2022-12-26T12:22:46.327Z,98760.78
2022-12-26T12:26:08.317Z,98758.06
2022-12-26T12:29:32.270Z,98746.81
2022-12-26T12:32:57.293Z,98762.13
2022-12-26T12:36:11.419Z,98749.00
2022-12-26T12:39:29.427Z,98746.06
2022-12-26T12:42:49.857Z,98746.69
2022-12-26T12:46:09.419Z,98755.84
2022-12-26T12:49:36.351Z,98751.28
2022-12-26T12:52:56.438Z,98759.81
2022-12-26T12:56:19.432Z,98753.22
2022-12-26T12:59:37.272Z,98756.97
2022-12-26T13:02:54.619Z,98759.88
2022-12-26T13:06:10.239Z,98757.94
2022-12-26T13:09:25.356Z,98771.03
2022-12-26T13:12:48.516Z,98766.25
2022-12-26T13:16:04.172Z,98762.78
2022-12-26T13:19:20.019Z,98770.97
2022-12-26T13:22:54.362Z,98757.91
2022-12-26T13:26:10.428Z,98761.13
2022-12-26T13:29:33.451Z,98761.72
2022-12-26T13:32:46.767Z,98757.47
2022-12-26T13:35:58.760Z,98755.00
2022-12-26T13:39:32.857Z,98755.00
2022-12-26T13:42:59.310Z,98748.59
2022-12-26T13:46:36.613Z,98744.13
2022-12-26T13:49:46.283Z,98741.78
2022-12-26T13:52:56.430Z,98731.91
2022-12-26T13:56:45.886Z,98743.75
2022-12-26T14:00:16.927Z,98734.28
2022-12-26T14:03:45.172Z,98756.97
2022-12-26T14:07:11.036Z,98732.44
2022-12-26T14:10:29.787Z,98727.28
2022-12-26T14:14:01.819Z,98740.66
2022-12-26T14:17:24.412Z,98737.13
2022-12-26T14:20:42.956Z,98733.56
2022-12-26T14:24:00.487Z,98742.97
2022-12-26T14:27:26.515Z,98737.75
2022-12-26T14:30:50.693Z,98734.41
2022-12-26T14:34:13.891Z,98739.53
2022-12-26T14:37:37.568Z,98740.31
2022-12-26T14:41:00.622Z,98737.19
2022-12-26T14:44:15.967Z,98750.38
2022-12-26T14:47:38.948Z,98751.72
2022-12-26T14:50:50.790Z,98758.66
2022-12-26T14:54:29.543Z,98764.47
2022-12-26T14:57:45.813Z,98763.47
2022-12-26T15:00:56.996Z,98771.06
2022-12-26T15:04:16.639Z,98766.91
2022-12-26T15:07:55.787Z,98770.50
2022-12-26T15:11:29.885Z,98777.19
2022-12-26T15:15:05.029Z,98778.13
2022-12-26T15:18:43.089Z,98776.53
2022-12-26T15:22:09.845Z,98760.88
2022-12-26T15:25:47.795Z,98767.38
2022-12-26T15:29:18.750Z,98783.81
2022-12-26T15:32:37.298Z,98771.84
2022-12-26T15:35:56.758Z,98765.56
2022-12-26T15:39:23.130Z,98766.72
2022-12-26T15:42:46.266Z,98772.94
2022-12-26T15:46:09.210Z,98774.41
2022-12-26T15:49:34.458Z,98760.44
2022-12-26T15:52:52.364Z,98769.81
2022-12-26T15:56:23.174Z,98793.06
2022-12-26T15:59:49.669Z,98801.31
2022-12-26T16:03:15.350Z,98810.88
2022-12-26T16:06:40.346Z,98815.53
2022-12-26T16:09:54.997Z,98812.53
2022-12-26T16:13:17.827Z,98830.19
2022-12-26T16:16:31.376Z,98823.81
2022-12-26T16:19:44.281Z,98810.72
2022-12-26T16:22:53.482Z,98829.81
2022-12-26T16:26:03.570Z,98845.88
2022-12-26T16:29:18.544Z,98890.44
2022-12-26T16:32:31.799Z,98921.56
2022-12-26T16:35:44.500Z,98915.22
2022-12-26T16:38:55.626Z,98927.19
2022-12-26T16:42:08.231Z,98953.34
2022-12-26T16:45:20.667Z,98945.16
2022-12-26T16:48:34.339Z,98954.00
2022-12-26T16:51:50.684Z,98955.88
2022-12-26T16:55:26.333Z,98948.56
2022-12-26T16:58:37.985Z,98950.97
2022-12-26T17:01:51.169Z,98959.34
2022-12-26T17:05:04.848Z,98945.50
2022-12-26T17:08:16.267Z,98915.44
2022-12-26T17:11:30.383Z,98911.84
2022-12-26T17:14:43.241Z,98908.66
2022-12-26T17:17:53.231Z,98906.84
2022-12-26T17:21:18.149Z,98921.63
2022-12-26T17:24:29.138Z,98928.78
2022-12-26T17:27:38.972Z,98926.50
2022-12-26T17:30:50.808Z,98928.53
2022-12-26T17:34:09.060Z,98923.91
2022-12-26T17:37:24.929Z,98933.91
2022-12-26T17:40:37.886Z,98953.06
2022-12-26T17:43:48.253Z,98949.97
2022-12-26T17:46:58.789Z,98959.16
2022-12-26T17:50:08.762Z,98959.53
2022-12-26T17:53:26.033Z,98955.03
2022-12-26T17:56:37.001Z,98975.56
2022-12-26T17:59:46.781Z,98986.03
2022-12-26T18:02:57.001Z,98977.63
2022-12-26T18:06:07.278Z,98989.84
2022-12-26T18:09:26.148Z,98987.16
2022-12-26T18:12:37.085Z,98986.53
2022-12-26T18:15:47.259Z,98999.56
2022-12-26T18:18:57.145Z,98991.28
2022-12-26T18:22:12.168Z,98983.19
2022-12-26T18:25:24.650Z,98993.50
2022-12-26T18:28:36.187Z,99000.44
2022-12-26T18:31:46.259Z,99017.91
2022-12-26T18:34:56.550Z,99014.06
2022-12-26T18:38:06.447Z,99014.53
2022-12-26T18:41:17.936Z,99023.44
2022-12-26T18:44:28.940Z,99011.41
2022-12-26T18:47:38.570Z,99019.84
2022-12-26T18:50:50.033Z,99025.22
2022-12-26T18:53:59.683Z,99028.00
2022-12-26T18:57:20.784Z,99033.31
2022-12-26T19:00:32.332Z,99043.78
2022-12-26T19:03:42.642Z,99050.50
2022-12-26T19:06:53.314Z,99054.38
2022-12-26T19:10:03.023Z,99056.47
2022-12-26T19:13:12.692Z,99066.06
2022-12-26T19:16:24.160Z,99075.50
2022-12-26T19:19:33.938Z,99084.38
2022-12-26T19:22:43.797Z,99092.59
2022-12-26T19:25:53.444Z,99095.16
2022-12-26T19:29:03.073Z,99104.25
2022-12-26T19:32:14.071Z,99116.16
2022-12-26T19:35:23.852Z,99135.56
2022-12-26T19:38:34.027Z,99132.47
2022-12-26T19:41:43.724Z,99149.22
2022-12-26T19:44:53.463Z,99154.75
2022-12-26T19:48:04.662Z,99171.00
2022-12-26T19:51:16.214Z,99177.72
2022-12-26T19:54:25.882Z,99199.09
2022-12-26T19:57:36.140Z,99206.78
2022-12-26T20:00:45.899Z,99207.22
2022-12-26T20:03:58.278Z,99216.13
2022-12-26T20:07:07.957Z,99227.97
2022-12-26T20:10:17.691Z,99225.94
2022-12-26T20:13:27.414Z,99238.88
2022-12-26T20:17:04.565Z,99240.13
2022-12-26T20:20:08.761Z,99265.81
2022-12-26T20:23:18.456Z,99272.25
2022-12-26T20:26:29.151Z,99284.53
2022-12-26T20:29:39.397Z,99283.50
2022-12-26T20:32:49.095Z,99283.06
